sensor_id;sensor_type;location;lat;lon;timestamp;temperature;humidity
39189;DHT22;24915;50.858;4.376;2022-09-16T00:01:28;15.60;99.90
39189;DHT22;24915;50.858;4.376;2022-09-16T00:03:55;15.60;99.90
39189;DHT22;24915;50.858;4.376;2022-09-16T00:06:26;15.50;99.90
39189;DHT22;24915;50.858;4.376;2022-09-16T00:08:54;15.50;99.90
39189;DHT22;24915;50.858;4.376;2022-09-16T00:11:20;15.50;99.90
39189;DHT22;24915;50.858;4.376;2022-09-16T00:13:46;15.50;99.90
39189;DHT22;24915;50.858;4.376;2022-09-16T00:16:18;15.50;99.90
39189;DHT22;24915;50.858;4.376;2022-09-16T00:18:43;15.50;99.90
39189;DHT22;24915;50.858;4.376;2022-09-16T00:21:10;15.50;99.90
39189;DHT22;24915;50.858;4.376;2022-09-16T00:23:36;15.40;99.90
39189;DHT22;24915;50.858;4.376;2022-09-16T00:26:03;15.40;99.90
39189;DHT22;24915;50.858;4.376;2022-09-16T00:28:29;15.40;99.90
39189;DHT22;24915;50.858;4.376;2022-09-16T00:31:01;15.40;99.90
39189;DHT22;24915;50.858;4.376;2022-09-16T00:33:27;15.30;99.90
39189;DHT22;24915;50.858;4.376;2022-09-16T00:36:05;15.20;99.90
39189;DHT22;24915;50.858;4.376;2022-09-16T00:38:30;15.20;99.90
39189;DHT22;24915;50.858;4.376;2022-09-16T00:40:56;15.20;99.90
39189;DHT22;24915;50.858;4.376;2022-09-16T00:43:22;15.20;99.90
39189;DHT22;24915;50.858;4.376;2022-09-16T00:46:02;15.10;99.90
39189;DHT22;24915;50.858;4.376;2022-09-16T00:48:30;15.10;99.90
39189;DHT22;24915;50.858;4.376;2022-09-16T00:51:03;15.10;99.90
39189;DHT22;24915;50.858;4.376;2022-09-16T00:53:39;15.10;99.90
39189;DHT22;24915;50.858;4.376;2022-09-16T00:56:06;15.10;99.90
39189;DHT22;24915;50.858;4.376;2022-09-16T00:58:42;15.10;99.90
39189;DHT22;24915;50.858;4.376;2022-09-16T01:01:08;15.10;99.90
39189;DHT22;24915;50.858;4.376;2022-09-16T01:03:59;15.10;99.90
39189;DHT22;24915;50.858;4.376;2022-09-16T01:06:23;15.10;99.90
39189;DHT22;24915;50.858;4.376;2022-09-16T01:08:50;15.10;99.90
39189;DHT22;24915;50.858;4.376;2022-09-16T01:11:16;15.00;99.90
39189;DHT22;24915;50.858;4.376;2022-09-16T01:13:43;15.10;99.90
39189;DHT22;24915;50.858;4.376;2022-09-16T01:16:33;15.10;99.90
39189;DHT22;24915;50.858;4.376;2022-09-16T01:19:25;15.10;99.90
39189;DHT22;24915;50.858;4.376;2022-09-16T01:33:42;15.00;99.90
39189;DHT22;24915;50.858;4.376;2022-09-16T01:44:46;14.80;99.90
39189;DHT22;24915;50.858;4.376;2022-09-16T01:47:36;14.80;99.90
39189;DHT22;24915;50.858;4.376;2022-09-16T01:50:18;14.80;99.90
39189;DHT22;24915;50.858;4.376;2022-09-16T01:53:06;14.70;99.90
39189;DHT22;24915;50.858;4.376;2022-09-16T01:58:05;14.60;99.90
39189;DHT22;24915;50.858;4.376;2022-09-16T02:00:34;14.60;99.90
39189;DHT22;24915;50.858;4.376;2022-09-16T02:03:09;14.60;99.90
39189;DHT22;24915;50.858;4.376;2022-09-16T02:06:02;14.70;99.90
39189;DHT22;24915;50.858;4.376;2022-09-16T02:08:39;14.60;99.90
39189;DHT22;24915;50.858;4.376;2022-09-16T02:11:08;14.60;99.90
39189;DHT22;24915;50.858;4.376;2022-09-16T02:13:47;14.60;99.90
39189;DHT22;24915;50.858;4.376;2022-09-16T02:16:19;14.70;99.90
39189;DHT22;24915;50.858;4.376;2022-09-16T02:18:52;14.70;99.90
39189;DHT22;24915;50.858;4.376;2022-09-16T02:21:20;14.70;99.90
39189;DHT22;24915;50.858;4.376;2022-09-16T02:23:50;14.70;99.90
39189;DHT22;24915;50.858;4.376;2022-09-16T02:26:23;14.70;99.90
39189;DHT22;24915;50.858;4.376;2022-09-16T02:28:52;14.70;99.90
39189;DHT22;24915;50.858;4.376;2022-09-16T02:31:23;14.80;99.90
39189;DHT22;24915;50.858;4.376;2022-09-16T02:33:54;14.80;99.90
39189;DHT22;24915;50.858;4.376;2022-09-16T02:36:22;14.80;99.90
39189;DHT22;24915;50.858;4.376;2022-09-16T02:38:54;14.80;99.90
39189;DHT22;24915;50.858;4.376;2022-09-16T02:41:21;14.80;99.90
39189;DHT22;24915;50.858;4.376;2022-09-16T02:43:47;14.90;99.90
39189;DHT22;24915;50.858;4.376;2022-09-16T02:46:24;14.90;99.90
39189;DHT22;24915;50.858;4.376;2022-09-16T02:48:59;14.90;99.90
39189;DHT22;24915;50.858;4.376;2022-09-16T02:56:50;14.80;99.90
39189;DHT22;24915;50.858;4.376;2022-09-16T02:59:16;14.80;99.90
39189;DHT22;24915;50.858;4.376;2022-09-16T03:01:44;14.70;99.90
39189;DHT22;24915;50.858;4.376;2022-09-16T03:04:12;14.70;99.90
39189;DHT22;24915;50.858;4.376;2022-09-16T03:06:39;14.70;99.90
39189;DHT22;24915;50.858;4.376;2022-09-16T03:09:07;14.60;99.90
39189;DHT22;24915;50.858;4.376;2022-09-16T03:20:00;14.70;99.90
39189;DHT22;24915;50.858;4.376;2022-09-16T03:22:55;14.70;99.90
39189;DHT22;24915;50.858;4.376;2022-09-16T03:31:32;14.70;99.90
39189;DHT22;24915;50.858;4.376;2022-09-16T03:34:13;14.60;99.90
39189;DHT22;24915;50.858;4.376;2022-09-16T03:36:45;14.60;99.90
39189;DHT22;24915;50.858;4.376;2022-09-16T03:39:13;14.70;99.90
39189;DHT22;24915;50.858;4.376;2022-09-16T03:41:39;14.70;99.90
39189;DHT22;24915;50.858;4.376;2022-09-16T03:44:05;14.70;99.90
39189;DHT22;24915;50.858;4.376;2022-09-16T03:46:31;14.60;99.90
39189;DHT22;24915;50.858;4.376;2022-09-16T03:48:57;14.60;99.90
39189;DHT22;24915;50.858;4.376;2022-09-16T03:51:24;14.60;99.90
39189;DHT22;24915;50.858;4.376;2022-09-16T03:53:51;14.50;99.90
39189;DHT22;24915;50.858;4.376;2022-09-16T03:56:17;14.50;99.90
39189;DHT22;24915;50.858;4.376;2022-09-16T03:58:42;14.50;99.90
39189;DHT22;24915;50.858;4.376;2022-09-16T04:01:08;14.50;99.90
39189;DHT22;24915;50.858;4.376;2022-09-16T04:03:34;14.50;99.90
39189;DHT22;24915;50.858;4.376;2022-09-16T04:06:02;14.50;99.90
39189;DHT22;24915;50.858;4.376;2022-09-16T04:08:28;14.40;99.90
39189;DHT22;24915;50.858;4.376;2022-09-16T04:11:02;14.30;99.90
39189;DHT22;24915;50.858;4.376;2022-09-16T04:13:30;14.30;99.90
39189;DHT22;24915;50.858;4.376;2022-09-16T04:15:56;14.20;99.90
39189;DHT22;24915;50.858;4.376;2022-09-16T04:18:22;14.20;99.90
39189;DHT22;24915;50.858;4.376;2022-09-16T04:20:48;14.20;99.90
39189;DHT22;24915;50.858;4.376;2022-09-16T04:23:13;14.10;99.90
39189;DHT22;24915;50.858;4.376;2022-09-16T04:25:39;14.10;99.90
39189;DHT22;24915;50.858;4.376;2022-09-16T04:28:08;14.10;99.90
39189;DHT22;24915;50.858;4.376;2022-09-16T04:30:33;14.10;99.90
39189;DHT22;24915;50.858;4.376;2022-09-16T04:33:00;14.10;99.90
39189;DHT22;24915;50.858;4.376;2022-09-16T04:35:26;14.10;99.90
39189;DHT22;24915;50.858;4.376;2022-09-16T04:37:51;14.10;99.90
39189;DHT22;24915;50.858;4.376;2022-09-16T04:40:18;14.20;99.90
39189;DHT22;24915;50.858;4.376;2022-09-16T04:42:50;14.20;99.90
39189;DHT22;24915;50.858;4.376;2022-09-16T04:45:16;14.20;99.90
39189;DHT22;24915;50.858;4.376;2022-09-16T04:47:43;14.20;99.90
39189;DHT22;24915;50.858;4.376;2022-09-16T04:50:09;14.20;99.90
39189;DHT22;24915;50.858;4.376;2022-09-16T04:52:36;14.20;99.90
39189;DHT22;24915;50.858;4.376;2022-09-16T04:55:01;14.20;99.90
39189;DHT22;24915;50.858;4.376;2022-09-16T04:57:30;14.20;99.90
39189;DHT22;24915;50.858;4.376;2022-09-16T04:59:59;14.20;99.90
39189;DHT22;24915;50.858;4.376;2022-09-16T05:02:25;14.10;99.90
39189;DHT22;24915;50.858;4.376;2022-09-16T05:04:51;14.10;99.90
39189;DHT22;24915;50.858;4.376;2022-09-16T05:07:17;14.10;99.90
39189;DHT22;24915;50.858;4.376;2022-09-16T05:09:43;14.10;99.90
39189;DHT22;24915;50.858;4.376;2022-09-16T05:12:08;14.10;99.90
39189;DHT22;24915;50.858;4.376;2022-09-16T05:14:34;14.10;99.90
39189;DHT22;24915;50.858;4.376;2022-09-16T05:16:59;14.10;99.90
39189;DHT22;24915;50.858;4.376;2022-09-16T05:19:25;14.10;99.90
39189;DHT22;24915;50.858;4.376;2022-09-16T05:21:51;14.10;99.90
39189;DHT22;24915;50.858;4.376;2022-09-16T05:24:16;14.10;99.90
39189;DHT22;24915;50.858;4.376;2022-09-16T05:26:42;14.20;99.90
39189;DHT22;24915;50.858;4.376;2022-09-16T05:29:13;14.20;99.90
39189;DHT22;24915;50.858;4.376;2022-09-16T05:31:41;14.20;99.90
39189;DHT22;24915;50.858;4.376;2022-09-16T05:34:14;14.20;99.90
39189;DHT22;24915;50.858;4.376;2022-09-16T05:36:41;14.20;99.90
39189;DHT22;24915;50.858;4.376;2022-09-16T05:39:09;14.30;99.90
39189;DHT22;24915;50.858;4.376;2022-09-16T05:41:36;14.30;99.90
39189;DHT22;24915;50.858;4.376;2022-09-16T05:44:02;14.30;99.90
39189;DHT22;24915;50.858;4.376;2022-09-16T05:46:28;14.30;99.90
39189;DHT22;24915;50.858;4.376;2022-09-16T05:48:55;14.30;99.90
39189;DHT22;24915;50.858;4.376;2022-09-16T05:51:22;14.30;99.90
39189;DHT22;24915;50.858;4.376;2022-09-16T05:53:49;14.30;99.90
39189;DHT22;24915;50.858;4.376;2022-09-16T05:56:19;14.30;99.90
39189;DHT22;24915;50.858;4.376;2022-09-16T05:58:45;14.30;99.90
39189;DHT22;24915;50.858;4.376;2022-09-16T06:01:16;14.30;99.90
39189;DHT22;24915;50.858;4.376;2022-09-16T06:03:44;14.30;99.90
39189;DHT22;24915;50.858;4.376;2022-09-16T06:08:39;14.40;99.90
39189;DHT22;24915;50.858;4.376;2022-09-16T06:11:09;14.40;99.90
39189;DHT22;24915;50.858;4.376;2022-09-16T06:13:35;14.40;99.90
39189;DHT22;24915;50.858;4.376;2022-09-16T06:16:02;14.40;99.90
39189;DHT22;24915;50.858;4.376;2022-09-16T06:18:29;14.40;99.90
39189;DHT22;24915;50.858;4.376;2022-09-16T06:20:56;14.40;99.90
39189;DHT22;24915;50.858;4.376;2022-09-16T06:23:22;14.40;99.90
39189;DHT22;24915;50.858;4.376;2022-09-16T06:25:48;14.40;99.90
39189;DHT22;24915;50.858;4.376;2022-09-16T06:28:14;14.40;99.90
39189;DHT22;24915;50.858;4.376;2022-09-16T06:30:40;14.40;99.90
39189;DHT22;24915;50.858;4.376;2022-09-16T06:33:06;14.40;99.90
39189;DHT22;24915;50.858;4.376;2022-09-16T06:35:34;14.30;99.90
39189;DHT22;24915;50.858;4.376;2022-09-16T06:38:00;14.40;99.90
39189;DHT22;24915;50.858;4.376;2022-09-16T06:40:26;14.40;99.90
39189;DHT22;24915;50.858;4.376;2022-09-16T06:42:53;14.40;99.90
39189;DHT22;24915;50.858;4.376;2022-09-16T06:45:19;14.40;99.90
39189;DHT22;24915;50.858;4.376;2022-09-16T06:47:45;14.50;99.90
39189;DHT22;24915;50.858;4.376;2022-09-16T06:50:11;14.50;99.90
39189;DHT22;24915;50.858;4.376;2022-09-16T06:52:36;14.50;99.90
39189;DHT22;24915;50.858;4.376;2022-09-16T06:55:02;14.50;99.90
39189;DHT22;24915;50.858;4.376;2022-09-16T06:57:29;14.40;99.90
39189;DHT22;24915;50.858;4.376;2022-09-16T06:59:55;14.40;99.90
39189;DHT22;24915;50.858;4.376;2022-09-16T07:02:20;14.40;99.90
39189;DHT22;24915;50.858;4.376;2022-09-16T07:04:46;14.30;99.90
39189;DHT22;24915;50.858;4.376;2022-09-16T07:07:12;14.30;99.90
39189;DHT22;24915;50.858;4.376;2022-09-16T07:09:38;14.30;99.90
39189;DHT22;24915;50.858;4.376;2022-09-16T07:12:04;14.30;99.90
39189;DHT22;24915;50.858;4.376;2022-09-16T07:14:30;14.20;99.90
39189;DHT22;24915;50.858;4.376;2022-09-16T07:16:59;14.20;99.90
39189;DHT22;24915;50.858;4.376;2022-09-16T07:19:26;14.20;99.90
39189;DHT22;24915;50.858;4.376;2022-09-16T07:21:52;14.30;99.90
39189;DHT22;24915;50.858;4.376;2022-09-16T07:24:18;14.20;99.90
39189;DHT22;24915;50.858;4.376;2022-09-16T07:26:44;14.20;99.90
39189;DHT22;24915;50.858;4.376;2022-09-16T07:29:13;14.20;99.90
39189;DHT22;24915;50.858;4.376;2022-09-16T07:31:39;14.20;99.90
39189;DHT22;24915;50.858;4.376;2022-09-16T07:34:07;14.20;99.90
39189;DHT22;24915;50.858;4.376;2022-09-16T07:36:45;14.30;99.90
39189;DHT22;24915;50.858;4.376;2022-09-16T07:39:13;14.20;99.90
39189;DHT22;24915;50.858;4.376;2022-09-16T07:41:44;14.30;99.90
39189;DHT22;24915;50.858;4.376;2022-09-16T07:44:12;14.20;99.90
39189;DHT22;24915;50.858;4.376;2022-09-16T07:46:38;14.20;99.90
39189;DHT22;24915;50.858;4.376;2022-09-16T07:49:06;14.20;99.90
39189;DHT22;24915;50.858;4.376;2022-09-16T07:51:33;14.30;99.90
39189;DHT22;24915;50.858;4.376;2022-09-16T07:54:05;14.30;99.90
39189;DHT22;24915;50.858;4.376;2022-09-16T07:56:35;14.40;99.90
39189;DHT22;24915;50.858;4.376;2022-09-16T07:59:04;14.50;99.90
39189;DHT22;24915;50.858;4.376;2022-09-16T08:01:31;14.60;99.90
39189;DHT22;24915;50.858;4.376;2022-09-16T08:03:57;14.60;99.90
39189;DHT22;24915;50.858;4.376;2022-09-16T08:06:25;14.70;99.90
39189;DHT22;24915;50.858;4.376;2022-09-16T08:08:53;14.70;99.90
39189;DHT22;24915;50.858;4.376;2022-09-16T08:11:19;14.80;99.90
39189;DHT22;24915;50.858;4.376;2022-09-16T08:13:45;14.80;99.90
39189;DHT22;24915;50.858;4.376;2022-09-16T08:16:14;14.80;99.90
39189;DHT22;24915;50.858;4.376;2022-09-16T08:18:40;14.90;99.90
39189;DHT22;24915;50.858;4.376;2022-09-16T08:21:08;14.80;99.90
39189;DHT22;24915;50.858;4.376;2022-09-16T08:23:35;14.90;99.90
39189;DHT22;24915;50.858;4.376;2022-09-16T08:26:01;14.90;99.90
39189;DHT22;24915;50.858;4.376;2022-09-16T08:28:27;15.00;99.90
39189;DHT22;24915;50.858;4.376;2022-09-16T08:30:53;15.00;99.90
39189;DHT22;24915;50.858;4.376;2022-09-16T08:33:19;15.10;99.90
39189;DHT22;24915;50.858;4.376;2022-09-16T08:35:59;15.10;99.90
39189;DHT22;24915;50.858;4.376;2022-09-16T08:38:26;15.10;99.90
39189;DHT22;24915;50.858;4.376;2022-09-16T08:41:07;15.10;99.90
39189;DHT22;24915;50.858;4.376;2022-09-16T08:46:57;14.90;99.90
39189;DHT22;24915;50.858;4.376;2022-09-16T08:49:39;14.80;99.90
39189;DHT22;24915;50.858;4.376;2022-09-16T08:54:55;14.70;99.90
39189;DHT22;24915;50.858;4.376;2022-09-16T08:57:25;14.80;99.90
39189;DHT22;24915;50.858;4.376;2022-09-16T08:59:57;14.70;99.90
39189;DHT22;24915;50.858;4.376;2022-09-16T09:02:52;14.70;99.90
39189;DHT22;24915;50.858;4.376;2022-09-16T09:16:30;14.60;99.90
39189;DHT22;24915;50.858;4.376;2022-09-16T09:27:26;14.50;99.90
39189;DHT22;24915;50.858;4.376;2022-09-16T09:30:07;14.50;99.90
39189;DHT22;24915;50.858;4.376;2022-09-16T09:35:24;14.60;99.90
39189;DHT22;24915;50.858;4.376;2022-09-16T09:43:15;15.10;99.90
39189;DHT22;24915;50.858;4.376;2022-09-16T09:46:26;15.40;99.90
39189;DHT22;24915;50.858;4.376;2022-09-16T09:48:58;15.80;99.90
39189;DHT22;24915;50.858;4.376;2022-09-16T09:54:27;16.70;99.90
39189;DHT22;24915;50.858;4.376;2022-09-16T09:57:13;17.00;99.90
39189;DHT22;24915;50.858;4.376;2022-09-16T09:59:51;17.40;99.90
39189;DHT22;24915;50.858;4.376;2022-09-16T10:02:20;17.70;99.90
39189;DHT22;24915;50.858;4.376;2022-09-16T10:04:47;17.90;99.90
39189;DHT22;24915;50.858;4.376;2022-09-16T10:07:15;18.10;99.90
39189;DHT22;24915;50.858;4.376;2022-09-16T10:09:49;18.10;99.90
39189;DHT22;24915;50.858;4.376;2022-09-16T10:12:25;18.20;99.90
39189;DHT22;24915;50.858;4.376;2022-09-16T10:14:51;18.30;99.90
39189;DHT22;24915;50.858;4.376;2022-09-16T10:17:17;18.40;99.90
39189;DHT22;24915;50.858;4.376;2022-09-16T10:22:32;18.80;99.90
39189;DHT22;24915;50.858;4.376;2022-09-16T10:25:20;19.10;99.90
39189;DHT22;24915;50.858;4.376;2022-09-16T10:27:55;19.20;99.90
39189;DHT22;24915;50.858;4.376;2022-09-16T10:30:22;19.10;99.90
39189;DHT22;24915;50.858;4.376;2022-09-16T10:33:10;19.00;99.90
39189;DHT22;24915;50.858;4.376;2022-09-16T10:35:38;18.80;99.90
39189;DHT22;24915;50.858;4.376;2022-09-16T10:38:21;18.30;99.90
39189;DHT22;24915;50.858;4.376;2022-09-16T10:40:52;17.90;99.90
39189;DHT22;24915;50.858;4.376;2022-09-16T10:43:18;17.40;99.90
39189;DHT22;24915;50.858;4.376;2022-09-16T10:45:46;17.10;99.90
39189;DHT22;24915;50.858;4.376;2022-09-16T10:48:15;16.80;99.90
39189;DHT22;24915;50.858;4.376;2022-09-16T10:50:56;16.80;99.90
39189;DHT22;24915;50.858;4.376;2022-09-16T10:53:29;16.80;99.90
39189;DHT22;24915;50.858;4.376;2022-09-16T10:56:00;16.80;99.90
39189;DHT22;24915;50.858;4.376;2022-09-16T10:58:26;16.90;99.90
39189;DHT22;24915;50.858;4.376;2022-09-16T11:03:58;17.30;99.90
39189;DHT22;24915;50.858;4.376;2022-09-16T11:06:42;17.60;99.90
39189;DHT22;24915;50.858;4.376;2022-09-16T11:14:54;18.30;99.90
39189;DHT22;24915;50.858;4.376;2022-09-16T11:30:59;17.50;99.90
39189;DHT22;24915;50.858;4.376;2022-09-16T11:33:45;17.10;99.90
39189;DHT22;24915;50.858;4.376;2022-09-16T11:36:18;16.80;99.90
39189;DHT22;24915;50.858;4.376;2022-09-16T11:50:48;16.20;99.90
39189;DHT22;24915;50.858;4.376;2022-09-16T11:53:34;16.10;99.90
39189;DHT22;24915;50.858;4.376;2022-09-16T11:56:07;16.00;99.90
39189;DHT22;24915;50.858;4.376;2022-09-16T11:58:53;15.90;99.90
39189;DHT22;24915;50.858;4.376;2022-09-16T12:01:56;15.70;99.90
39189;DHT22;24915;50.858;4.376;2022-09-16T12:04:36;15.60;99.90
39189;DHT22;24915;50.858;4.376;2022-09-16T12:09:49;15.30;99.90
39189;DHT22;24915;50.858;4.376;2022-09-16T12:12:19;15.30;99.90
39189;DHT22;24915;50.858;4.376;2022-09-16T12:14:53;15.20;99.90
39189;DHT22;24915;50.858;4.376;2022-09-16T12:17:31;15.10;99.90
39189;DHT22;24915;50.858;4.376;2022-09-16T12:20:04;15.00;99.90
39189;DHT22;24915;50.858;4.376;2022-09-16T12:22:38;15.00;99.90
39189;DHT22;24915;50.858;4.376;2022-09-16T12:25:12;15.00;99.90
39189;DHT22;24915;50.858;4.376;2022-09-16T12:30:41;15.10;99.90
39189;DHT22;24915;50.858;4.376;2022-09-16T12:33:15;15.30;99.90
39189;DHT22;24915;50.858;4.376;2022-09-16T12:36:03;15.40;99.90
39189;DHT22;24915;50.858;4.376;2022-09-16T12:38:29;15.60;99.90
39189;DHT22;24915;50.858;4.376;2022-09-16T13:03:16;16.70;99.90
39189;DHT22;24915;50.858;4.376;2022-09-16T13:05:50;16.50;99.90
39189;DHT22;24915;50.858;4.376;2022-09-16T13:08:25;16.40;99.90
39189;DHT22;24915;50.858;4.376;2022-09-16T13:11:04;16.40;99.90
39189;DHT22;24915;50.858;4.376;2022-09-16T13:13:39;16.30;99.90
39189;DHT22;24915;50.858;4.376;2022-09-16T13:16:07;16.30;99.90
39189;DHT22;24915;50.858;4.376;2022-09-16T13:19:19;16.30;99.90
39189;DHT22;24915;50.858;4.376;2022-09-16T13:21:49;16.30;99.90
39189;DHT22;24915;50.858;4.376;2022-09-16T13:24:38;16.40;99.90
39189;DHT22;24915;50.858;4.376;2022-09-16T13:27:25;16.70;99.90
39189;DHT22;24915;50.858;4.376;2022-09-16T13:29:51;17.00;99.90
39189;DHT22;24915;50.858;4.376;2022-09-16T13:35:21;17.30;99.90
39189;DHT22;24915;50.858;4.376;2022-09-16T13:37:49;17.30;99.90
39189;DHT22;24915;50.858;4.376;2022-09-16T13:40:22;17.20;99.90
39189;DHT22;24915;50.858;4.376;2022-09-16T13:42:48;16.80;99.90
39189;DHT22;24915;50.858;4.376;2022-09-16T13:45:34;16.40;99.90
39189;DHT22;24915;50.858;4.376;2022-09-16T13:48:11;16.10;99.90
39189;DHT22;24915;50.858;4.376;2022-09-16T13:50:47;15.80;99.90
39189;DHT22;24915;50.858;4.376;2022-09-16T13:56:09;15.70;99.90
39189;DHT22;24915;50.858;4.376;2022-09-16T14:01:38;16.60;99.90
39189;DHT22;24915;50.858;4.376;2022-09-16T14:12:53;19.50;99.90
39189;DHT22;24915;50.858;4.376;2022-09-16T14:15:21;19.80;99.90
39189;DHT22;24915;50.858;4.376;2022-09-16T14:17:52;20.40;99.90
39189;DHT22;24915;50.858;4.376;2022-09-16T14:20:21;21.30;99.90
39189;DHT22;24915;50.858;4.376;2022-09-16T14:22:58;21.90;99.90
39189;DHT22;24915;50.858;4.376;2022-09-16T14:25:26;22.90;99.90
39189;DHT22;24915;50.858;4.376;2022-09-16T14:28:06;24.40;99.90
39189;DHT22;24915;50.858;4.376;2022-09-16T14:30:32;24.30;95.20
39189;DHT22;24915;50.858;4.376;2022-09-16T14:33:00;22.60;96.00
39189;DHT22;24915;50.858;4.376;2022-09-16T14:35:26;21.20;99.20
39189;DHT22;24915;50.858;4.376;2022-09-16T14:37:58;21.30;99.10
39189;DHT22;24915;50.858;4.376;2022-09-16T14:40:26;21.70;97.90
39189;DHT22;24915;50.858;4.376;2022-09-16T14:43:03;23.00;97.00
39189;DHT22;24915;50.858;4.376;2022-09-16T14:45:30;24.40;93.20
39189;DHT22;24915;50.858;4.376;2022-09-16T14:47:59;23.00;94.90
39189;DHT22;24915;50.858;4.376;2022-09-16T14:50:29;21.60;96.40
39189;DHT22;24915;50.858;4.376;2022-09-16T14:53:00;20.30;97.30
39189;DHT22;24915;50.858;4.376;2022-09-16T14:55:31;19.30;99.00
39189;DHT22;24915;50.858;4.376;2022-09-16T14:57:58;18.70;99.90
39189;DHT22;24915;50.858;4.376;2022-09-16T15:00:32;18.80;99.90
39189;DHT22;24915;50.858;4.376;2022-09-16T15:03:10;19.40;99.90
39189;DHT22;24915;50.858;4.376;2022-09-16T15:05:39;20.30;99.50
39189;DHT22;24915;50.858;4.376;2022-09-16T15:10:49;22.70;96.60
39189;DHT22;24915;50.858;4.376;2022-09-16T15:13:17;24.30;93.10
39189;DHT22;24915;50.858;4.376;2022-09-16T15:15:56;25.00;91.70
39189;DHT22;24915;50.858;4.376;2022-09-16T15:18:28;24.80;91.80
39189;DHT22;24915;50.858;4.376;2022-09-16T15:21:16;24.50;90.80
39189;DHT22;24915;50.858;4.376;2022-09-16T15:23:46;23.90;91.80
39189;DHT22;24915;50.858;4.376;2022-09-16T15:26:18;23.30;92.10
39189;DHT22;24915;50.858;4.376;2022-09-16T15:29:03;22.70;92.30
39189;DHT22;24915;50.858;4.376;2022-09-16T15:31:31;22.20;93.10
39189;DHT22;24915;50.858;4.376;2022-09-16T15:34:00;21.40;92.50
39189;DHT22;24915;50.858;4.376;2022-09-16T15:39:00;20.50;94.40
39189;DHT22;24915;50.858;4.376;2022-09-16T15:41:26;19.90;95.80
39189;DHT22;24915;50.858;4.376;2022-09-16T15:43:52;19.40;96.00
39189;DHT22;24915;50.858;4.376;2022-09-16T15:46:20;19.00;96.80
39189;DHT22;24915;50.858;4.376;2022-09-16T15:48:50;18.70;98.20
39189;DHT22;24915;50.858;4.376;2022-09-16T15:51:37;18.40;98.30
39189;DHT22;24915;50.858;4.376;2022-09-16T15:59:36;17.60;99.90
39189;DHT22;24915;50.858;4.376;2022-09-16T16:02:17;17.50;99.90
39189;DHT22;24915;50.858;4.376;2022-09-16T16:04:44;17.50;99.90
39189;DHT22;24915;50.858;4.376;2022-09-16T16:07:10;17.40;99.90
39189;DHT22;24915;50.858;4.376;2022-09-16T16:09:38;17.20;99.90
39189;DHT22;24915;50.858;4.376;2022-09-16T16:12:22;17.10;99.90
39189;DHT22;24915;50.858;4.376;2022-09-16T16:14:48;17.00;99.90
39189;DHT22;24915;50.858;4.376;2022-09-16T16:17:16;16.90;99.90
39189;DHT22;24915;50.858;4.376;2022-09-16T16:19:45;16.80;99.90
39189;DHT22;24915;50.858;4.376;2022-09-16T16:22:11;16.60;99.90
39189;DHT22;24915;50.858;4.376;2022-09-16T16:24:37;16.40;99.90
39189;DHT22;24915;50.858;4.376;2022-09-16T16:27:03;16.10;99.90
39189;DHT22;24915;50.858;4.376;2022-09-16T16:29:29;15.90;99.90
39189;DHT22;24915;50.858;4.376;2022-09-16T16:32:04;15.80;99.90
39189;DHT22;24915;50.858;4.376;2022-09-16T16:34:32;15.70;99.90
39189;DHT22;24915;50.858;4.376;2022-09-16T16:36:58;15.60;99.90
39189;DHT22;24915;50.858;4.376;2022-09-16T16:39:23;15.50;99.90
39189;DHT22;24915;50.858;4.376;2022-09-16T16:41:50;15.40;99.90
39189;DHT22;24915;50.858;4.376;2022-09-16T16:44:19;15.30;99.90
39189;DHT22;24915;50.858;4.376;2022-09-16T16:46:45;15.10;99.90
39189;DHT22;24915;50.858;4.376;2022-09-16T16:49:11;14.90;99.90
39189;DHT22;24915;50.858;4.376;2022-09-16T16:51:37;14.80;99.90
39189;DHT22;24915;50.858;4.376;2022-09-16T16:54:03;14.60;99.90
39189;DHT22;24915;50.858;4.376;2022-09-16T16:56:29;14.60;99.90
39189;DHT22;24915;50.858;4.376;2022-09-16T16:58:54;14.50;99.90
39189;DHT22;24915;50.858;4.376;2022-09-16T17:01:20;14.30;99.90
39189;DHT22;24915;50.858;4.376;2022-09-16T17:03:47;14.20;99.90
39189;DHT22;24915;50.858;4.376;2022-09-16T17:06:16;14.20;99.90
39189;DHT22;24915;50.858;4.376;2022-09-16T17:08:42;14.30;99.90
39189;DHT22;24915;50.858;4.376;2022-09-16T17:11:10;14.20;99.90
39189;DHT22;24915;50.858;4.376;2022-09-16T17:13:41;14.20;99.90
39189;DHT22;24915;50.858;4.376;2022-09-16T17:16:09;14.20;99.90
39189;DHT22;24915;50.858;4.376;2022-09-16T17:18:36;14.10;99.90
39189;DHT22;24915;50.858;4.376;2022-09-16T17:21:08;14.10;99.90
39189;DHT22;24915;50.858;4.376;2022-09-16T17:23:34;14.10;99.90
39189;DHT22;24915;50.858;4.376;2022-09-16T17:26:01;14.10;99.90
39189;DHT22;24915;50.858;4.376;2022-09-16T17:28:27;14.00;99.90
39189;DHT22;24915;50.858;4.376;2022-09-16T17:30:53;14.00;99.90
39189;DHT22;24915;50.858;4.376;2022-09-16T17:33:19;14.00;99.90
39189;DHT22;24915;50.858;4.376;2022-09-16T17:35:46;14.00;99.90
39189;DHT22;24915;50.858;4.376;2022-09-16T17:38:12;14.00;99.90
39189;DHT22;24915;50.858;4.376;2022-09-16T17:40:38;14.00;99.90
39189;DHT22;24915;50.858;4.376;2022-09-16T17:43:04;14.00;99.90
39189;DHT22;24915;50.858;4.376;2022-09-16T17:45:33;14.00;99.90
39189;DHT22;24915;50.858;4.376;2022-09-16T17:47:59;13.90;99.90
39189;DHT22;24915;50.858;4.376;2022-09-16T17:50:25;13.90;99.90
39189;DHT22;24915;50.858;4.376;2022-09-16T17:52:51;13.90;99.90
39189;DHT22;24915;50.858;4.376;2022-09-16T17:55:16;13.80;99.90
39189;DHT22;24915;50.858;4.376;2022-09-16T17:57:42;13.80;99.90
39189;DHT22;24915;50.858;4.376;2022-09-16T18:00:08;13.80;99.90
39189;DHT22;24915;50.858;4.376;2022-09-16T18:02:34;13.80;99.90
39189;DHT22;24915;50.858;4.376;2022-09-16T18:05:00;13.80;99.90
39189;DHT22;24915;50.858;4.376;2022-09-16T18:07:26;13.70;99.90
39189;DHT22;24915;50.858;4.376;2022-09-16T18:09:52;13.70;99.90
39189;DHT22;24915;50.858;4.376;2022-09-16T18:12:17;13.70;99.90
39189;DHT22;24915;50.858;4.376;2022-09-16T18:14:43;13.60;99.90
39189;DHT22;24915;50.858;4.376;2022-09-16T18:17:09;13.60;99.90
39189;DHT22;24915;50.858;4.376;2022-09-16T18:19:36;13.60;99.90
39189;DHT22;24915;50.858;4.376;2022-09-16T18:22:02;13.50;99.90
39189;DHT22;24915;50.858;4.376;2022-09-16T18:24:28;13.50;99.90
39189;DHT22;24915;50.858;4.376;2022-09-16T18:26:53;13.50;99.90
39189;DHT22;24915;50.858;4.376;2022-09-16T18:29:19;13.50;99.90
39189;DHT22;24915;50.858;4.376;2022-09-16T18:31:46;13.50;99.90
39189;DHT22;24915;50.858;4.376;2022-09-16T18:34:14;13.40;99.90
39189;DHT22;24915;50.858;4.376;2022-09-16T18:36:40;13.40;99.90
39189;DHT22;24915;50.858;4.376;2022-09-16T18:39:11;13.40;99.90
39189;DHT22;24915;50.858;4.376;2022-09-16T18:41:39;13.40;99.90
39189;DHT22;24915;50.858;4.376;2022-09-16T18:44:09;13.40;99.90